createdAt,value
2023-01-17T00:24:23.209Z,15.52
2023-01-17T00:26:25.149Z,14.70
2023-01-17T00:28:27.450Z,15.15
2023-01-17T00:30:29.359Z,14.13
2023-01-17T00:32:31.156Z,15.50
2023-01-17T00:34:32.996Z,16.08
2023-01-17T00:36:34.841Z,16.38
2023-01-17T00:38:38.631Z,15.45
2023-01-17T00:40:42.399Z,15.40
2023-01-17T00:42:44.279Z,16.17
2023-01-17T00:45:04.557Z,17.40
2023-01-17T00:47:24.943Z,17.35
2023-01-17T00:49:45.553Z,16.13
2023-01-17T00:52:06.077Z,17.88
2023-01-17T00:54:27.272Z,16.58
2023-01-17T00:56:47.868Z,18.67
2023-01-17T00:59:08.222Z,14.93
2023-01-17T01:01:28.706Z,18.58
2023-01-17T01:03:49.255Z,19.13
2023-01-17T01:06:09.824Z,18.33
2023-01-17T01:08:39.030Z,18.55
2023-01-17T01:10:59.721Z,19.50
2023-01-17T01:13:20.211Z,18.90
2023-01-17T01:15:40.447Z,21.35
2023-01-17T01:18:00.800Z,21.33
2023-01-17T01:20:21.500Z,22.15
2023-01-17T01:22:42.162Z,20.73
2023-01-17T01:25:02.711Z,20.55
2023-01-17T01:27:23.380Z,22.73
2023-01-17T01:29:43.914Z,22.08
2023-01-17T01:32:04.448Z,23.38
2023-01-17T01:34:06.316Z,24.30
2023-01-17T01:36:09.339Z,24.98
2023-01-17T01:38:11.296Z,23.45
2023-01-17T01:40:14.035Z,24.35
2023-01-17T01:42:18.840Z,22.83
2023-01-17T01:44:49.640Z,23.27
2023-01-17T01:46:51.555Z,23.15
2023-01-17T01:49:02.394Z,24.50
2023-01-17T01:51:07.699Z,25.40
2023-01-17T01:53:10.363Z,25.67
2023-01-17T01:55:25.085Z,24.80
2023-01-17T01:57:34.722Z,26.50
2023-01-17T01:59:40.902Z,25.73
2023-01-17T02:01:43.253Z,26.50
2023-01-17T02:03:46.780Z,26.50
2023-01-17T02:05:48.902Z,25.48
2023-01-17T02:10:02.870Z,25.10
2023-01-17T04:18:11.279Z,26.77
2023-01-17T04:20:31.925Z,25.48
2023-01-17T04:22:33.839Z,25.67
2023-01-17T04:24:35.974Z,25.40
2023-01-17T04:28:39.823Z,25.63
2023-01-17T04:32:43.578Z,25.05
2023-01-17T04:34:45.460Z,26.80
2023-01-17T04:36:47.390Z,25.85
2023-01-17T04:38:49.275Z,24.55
2023-01-17T04:40:51.536Z,25.42
2023-01-17T04:42:54.422Z,24.92
2023-01-17T04:44:56.362Z,26.33
2023-01-17T04:46:58.243Z,24.90
2023-01-17T04:49:00.653Z,25.00
2023-01-17T04:51:04.247Z,25.58
2023-01-17T04:53:06.225Z,24.13
2023-01-17T04:55:08.672Z,23.77
2023-01-17T04:57:10.744Z,24.40
2023-01-17T05:01:14.738Z,22.05
2023-01-17T05:03:21.424Z,23.23
2023-01-17T05:05:23.332Z,24.50
2023-01-17T05:07:25.729Z,22.45
2023-01-17T05:09:27.668Z,22.63
2023-01-17T05:11:29.523Z,23.67
2023-01-17T05:13:31.475Z,25.27
2023-01-17T05:15:33.470Z,23.27
2023-01-17T05:17:35.437Z,22.00
2023-01-17T05:19:37.459Z,23.63
2023-01-17T05:21:39.343Z,21.63
2023-01-17T05:23:42.719Z,23.52
2023-01-17T05:25:44.952Z,23.35
2023-01-17T05:27:46.820Z,23.65
2023-01-17T05:29:48.708Z,22.52
2023-01-17T05:31:50.594Z,23.55
2023-01-17T05:33:52.522Z,23.40
2023-01-17T05:35:54.474Z,23.88
2023-01-17T05:37:56.851Z,23.15
2023-01-17T05:39:58.739Z,24.25
2023-01-17T05:42:03.400Z,23.75
2023-01-17T05:44:05.477Z,23.17
2023-01-17T05:48:09.683Z,22.30
2023-01-17T05:50:13.833Z,24.08
2023-01-17T05:52:15.800Z,22.70
2023-01-17T05:54:17.872Z,22.88
2023-01-17T05:58:22.558Z,22.15
2023-01-17T06:00:24.800Z,21.13
2023-01-17T06:02:26.927Z,22.52
2023-01-17T06:06:30.685Z,22.73
2023-01-17T06:08:32.650Z,22.08
2023-01-17T08:11:02.769Z,27.48
2023-01-17T08:13:04.672Z,27.00
2023-01-17T08:15:07.147Z,26.92
2023-01-17T08:17:14.708Z,27.52
2023-01-17T08:19:17.731Z,27.35
2023-01-17T08:21:19.608Z,27.52
2023-01-17T08:23:21.723Z,27.35
2023-01-17T08:27:26.351Z,25.58
2023-01-17T08:29:29.373Z,25.55
2023-01-17T08:31:33.854Z,26.85
2023-01-17T08:33:36.451Z,30.05
2023-01-17T08:35:38.411Z,27.35
2023-01-17T08:37:40.337Z,27.45
2023-01-17T08:39:42.211Z,27.10
2023-01-17T08:41:44.101Z,27.45
2023-01-17T08:43:51.256Z,26.48
2023-01-17T08:45:56.083Z,27.63
2023-01-17T08:47:59.207Z,27.45
2023-01-17T08:50:01.480Z,27.13
2023-01-17T08:52:03.521Z,27.75
2023-01-17T08:56:08.134Z,23.65
2023-01-17T08:58:10.030Z,26.77
2023-01-17T09:00:12.333Z,25.77
2023-01-17T09:02:18.934Z,24.00
2023-01-17T09:04:20.857Z,25.63
2023-01-17T09:06:22.832Z,25.58
2023-01-17T09:08:24.688Z,27.60
2023-01-17T09:10:27.204Z,25.42
2023-01-17T09:12:32.987Z,25.17
2023-01-17T09:14:35.600Z,25.27
2023-01-17T09:16:37.535Z,24.63
2023-01-17T09:18:39.488Z,24.38
2023-01-17T09:20:41.372Z,27.33
2023-01-17T09:22:45.068Z,24.92
2023-01-17T09:24:47.913Z,26.52
2023-01-17T09:26:49.781Z,24.38
2023-01-17T09:28:52.880Z,23.45
2023-01-17T09:30:55.075Z,24.52
2023-01-17T09:32:56.982Z,26.08
2023-01-17T09:35:00.801Z,26.02
2023-01-17T09:37:03.357Z,28.25
2023-01-17T09:39:05.615Z,26.35
2023-01-17T09:41:38.125Z,26.27
2023-01-17T09:43:49.074Z,26.48
2023-01-17T09:45:51.359Z,26.35
2023-01-17T09:47:55.113Z,24.92
2023-01-17T09:50:06.657Z,25.33
2023-01-17T09:52:17.648Z,27.65
2023-01-17T09:54:25.483Z,24.63
2023-01-17T09:56:42.781Z,26.13
2023-01-17T09:59:15.408Z,27.02
2023-01-17T10:01:45.081Z,25.77
2023-01-17T10:04:01.128Z,25.05
2023-01-17T12:13:20.067Z,27.73
2023-01-17T12:15:39.510Z,24.95
2023-01-17T12:18:06.737Z,26.73
2023-01-17T12:20:24.878Z,23.98
2023-01-17T12:22:35.895Z,25.50
2023-01-17T12:24:46.432Z,24.10
2023-01-17T12:26:54.267Z,24.17
2023-01-17T12:29:14.952Z,24.58
2023-01-17T12:31:33.631Z,26.58
2023-01-17T12:33:58.294Z,26.55
2023-01-17T12:36:05.206Z,24.70
2023-01-17T12:38:18.045Z,26.10
2023-01-17T12:40:33.001Z,25.33
2023-01-17T12:42:41.030Z,25.55
2023-01-17T12:45:17.926Z,25.80
2023-01-17T12:47:21.377Z,26.73
2023-01-17T12:49:35.601Z,24.70
2023-01-17T12:51:41.308Z,24.83
2023-01-17T12:54:16.107Z,25.15
2023-01-17T12:56:26.830Z,24.73
2023-01-17T12:58:36.889Z,23.60
2023-01-17T13:00:39.650Z,24.98
2023-01-17T13:02:59.497Z,24.33
2023-01-17T13:05:29.620Z,22.35
2023-01-17T13:08:20.115Z,23.75
2023-01-17T13:10:32.081Z,25.23
2023-01-17T13:12:37.958Z,25.05
2023-01-17T13:14:40.039Z,26.23
2023-01-17T13:19:42.054Z,24.90
2023-01-17T13:21:45.807Z,27.70
2023-01-17T13:23:54.059Z,26.20
2023-01-17T13:25:59.281Z,24.08
2023-01-17T13:28:04.368Z,26.27
2023-01-17T13:30:22.212Z,27.38
2023-01-17T13:32:39.038Z,25.88
2023-01-17T13:35:05.083Z,27.08
2023-01-17T13:37:54.961Z,26.20
2023-01-17T13:40:15.303Z,26.67
2023-01-17T13:42:34.634Z,30.02
2023-01-17T13:44:37.532Z,26.88
2023-01-17T13:46:57.634Z,27.02
2023-01-17T13:49:23.550Z,25.98
2023-01-17T13:52:07.653Z,29.33
2023-01-17T13:54:31.027Z,25.92
2023-01-17T13:56:34.129Z,25.52
2023-01-17T16:13:18.137Z,29.65
2023-01-17T16:15:20.532Z,29.17
2023-01-17T16:17:22.437Z,28.52
2023-01-17T16:19:24.383Z,28.58
2023-01-17T16:21:29.517Z,27.33
2023-01-17T16:23:31.560Z,29.00
2023-01-17T16:27:36.418Z,27.03
2023-01-17T16:29:38.319Z,28.15
2023-01-17T16:31:40.287Z,28.63
2023-01-17T16:33:42.528Z,26.38
2023-01-17T16:35:44.380Z,28.90
2023-01-17T16:37:53.056Z,27.10
2023-01-17T16:39:55.205Z,27.55
2023-01-17T16:42:02.617Z,29.70
2023-01-17T16:44:06.252Z,28.73
2023-01-17T16:46:11.597Z,27.63
2023-01-17T16:48:14.211Z,26.92
2023-01-17T16:50:18.509Z,26.85
2023-01-17T16:52:20.573Z,27.10
2023-01-17T16:56:24.458Z,25.35
2023-01-17T16:58:26.449Z,26.63
2023-01-17T17:00:28.378Z,28.75
2023-01-17T17:02:30.809Z,29.20
2023-01-17T17:04:32.752Z,29.17
2023-01-17T17:06:34.634Z,26.88
2023-01-17T17:08:37.627Z,28.23
2023-01-17T17:10:39.542Z,27.00
2023-01-17T17:12:41.732Z,27.77
2023-01-17T17:14:43.764Z,28.95
2023-01-17T17:16:45.660Z,29.98
2023-01-17T17:18:54.970Z,27.48
2023-01-17T17:21:02.101Z,29.00
2023-01-17T17:23:04.081Z,28.45
2023-01-17T17:25:06.840Z,27.17
2023-01-17T17:27:08.802Z,27.38
2023-01-17T17:29:12.738Z,28.58
2023-01-17T17:31:14.724Z,29.02
2023-01-17T17:33:17.321Z,28.23
2023-01-17T17:35:19.285Z,27.25
2023-01-17T17:37:23.031Z,28.13
2023-01-17T17:39:24.985Z,29.00
2023-01-17T17:41:29.182Z,24.10
2023-01-17T17:43:31.161Z,26.38
2023-01-17T17:47:34.998Z,25.65
2023-01-17T17:49:36.912Z,25.58
2023-01-17T17:51:40.637Z,25.38
2023-01-17T17:53:42.927Z,25.48
2023-01-17T17:55:44.854Z,25.73
2023-01-17T17:57:47.237Z,27.15
2023-01-17T17:59:49.139Z,27.85
2023-01-17T20:16:49.714Z,28.30
2023-01-17T20:18:52.475Z,27.27
2023-01-17T20:20:57.219Z,27.67
2023-01-17T20:23:01.327Z,27.90
2023-01-17T20:25:03.392Z,28.75
2023-01-17T20:29:15.297Z,26.70
2023-01-17T20:31:25.675Z,26.17
2023-01-17T20:33:27.756Z,25.42
2023-01-17T20:37:34.009Z,24.85
2023-01-17T20:39:38.944Z,25.60
2023-01-17T20:41:42.811Z,26.05
2023-01-17T20:43:50.392Z,27.52
2023-01-17T20:45:56.267Z,27.67
2023-01-17T20:47:58.651Z,27.50
2023-01-17T20:50:03.171Z,25.63
2023-01-17T20:52:06.187Z,27.33
2023-01-17T20:54:13.918Z,26.70
2023-01-17T20:56:15.919Z,28.90
2023-01-17T20:58:17.812Z,29.13
2023-01-17T21:00:20.105Z,27.00
2023-01-17T21:02:22.065Z,28.48
2023-01-17T21:04:25.743Z,29.08
2023-01-17T21:06:28.038Z,28.83
2023-01-17T21:08:31.593Z,26.33
2023-01-17T21:10:33.497Z,27.67
2023-01-17T21:12:35.513Z,29.20
2023-01-17T21:14:41.915Z,27.48
2023-01-17T21:16:44.756Z,28.05
2023-01-17T21:18:48.160Z,27.90
2023-01-17T21:20:50.576Z,27.58
2023-01-17T21:22:52.460Z,26.30
2023-01-17T21:24:54.611Z,28.35
2023-01-17T21:31:18.141Z,23.77
2023-01-17T21:33:21.428Z,23.80
2023-01-17T21:35:23.508Z,24.83
2023-01-17T21:37:25.724Z,25.60
2023-01-17T21:39:31.469Z,24.27
2023-01-17T21:41:36.291Z,25.13
2023-01-17T21:43:38.309Z,25.10
2023-01-17T21:45:41.424Z,24.02
2023-01-17T21:47:44.739Z,24.05
2023-01-17T21:49:47.120Z,24.85
2023-01-17T21:51:55.303Z,23.52
2023-01-17T21:54:01.378Z,23.67
2023-01-17T21:56:23.487Z,25.92
2023-01-17T21:58:44.024Z,24.90
2023-01-17T22:00:49.039Z,23.38
